Time;durP1;ratioP1;P1;durP2;ratioP2;P2;SDS_P1;SDS_P2;PMS_P1;PMS_P2;Temp;Humidity;BMP_temperature;BMP_pressure;BME280_temperature;BME280_humidity;BME280_pressure;Samples;Min_cycle;Max_cycle;Signal;HPM_P1;HPM_P2
2021/11/11 00:02:08;;;;;;;;;;;-0.70;99.90;;;;;;5054698;28;20038;-74
2021/11/11 00:04:34;;;;;;;;;;;-0.90;99.90;;;;;;5072889;28;19909;-74
2021/11/11 00:07:01;;;;;;;;;;;-0.90;99.90;;;;;;5054810;28;19908;-74
2021/11/11 00:09:27;;;;;;;;;;;-1.00;99.90;;;;;;5072671;28;19998;-76
2021/11/11 00:11:53;;;;;;;;;;;-0.70;99.90;;;;;;5054427;28;19959;-74
2021/11/11 00:14:19;;;;;;;;;;;-0.80;99.90;;;;;;5072665;28;19962;-74
2021/11/11 00:16:44;;;;;;;;;;;-0.90;99.90;;;;;;5072456;28;19908;-74
2021/11/11 00:19:10;;;;;;;;;;;-1.00;99.90;;;;;;5054599;28;19919;-74
2021/11/11 00:21:35;;;;;;;;;;;-1.00;99.90;;;;;;5074618;28;19913;-74
2021/11/11 00:24:01;;;;;;;;;;;-0.90;99.90;;;;;;5092589;28;19998;-74
2021/11/11 00:26:27;;;;;;;;;;;-1.00;99.90;;;;;;5092643;28;19908;-74
2021/11/11 00:28:53;;;;;;;;;;;-1.00;99.90;;;;;;5092776;28;20286;-74
2021/11/11 00:31:19;;;;;;;;;;;-0.90;99.90;;;;;;5091874;28;19912;-74
2021/11/11 00:33:44;;;;;;;;;;;-0.80;99.90;;;;;;5092505;28;20263;-74
2021/11/11 00:36:10;;;;;;;;;;;-0.80;99.90;;;;;;5092432;28;19982;-74
2021/11/11 00:38:36;;;;;;;;;;;-0.70;99.90;;;;;;5092390;28;19915;-74
2021/11/11 00:41:02;;;;;;;;;;;-0.70;99.90;;;;;;5091848;28;19908;-73
2021/11/11 00:43:27;;;;;;;;;;;-0.50;99.90;;;;;;5073946;28;19908;-74
2021/11/11 00:45:53;;;;;;;;;;;-0.50;99.90;;;;;;5092111;28;19953;-73
2021/11/11 00:48:18;;;;;;;;;;;-0.40;99.90;;;;;;5092236;28;19908;-73
2021/11/11 00:50:44;;;;;;;;;;;-0.30;99.90;;;;;;5091697;28;19912;-73
2021/11/11 00:53:09;;;;;;;;;;;-0.30;99.90;;;;;;5076132;28;19969;-73
2021/11/11 00:55:37;;;;;;;;;;;-0.30;99.90;;;;;;5071676;28;19912;-74
2021/11/11 00:58:03;;;;;;;;;;;-0.40;99.90;;;;;;5071918;28;20280;-74
2021/11/11 01:00:29;;;;;;;;;;;-0.60;99.90;;;;;;5071069;28;19912;-74
2021/11/11 01:02:55;;;;;;;;;;;-0.80;99.90;;;;;;5053763;28;20384;-74
2021/11/11 01:05:20;;;;;;;;;;;-0.90;99.90;;;;;;5053765;28;20096;-74
2021/11/11 01:07:46;;;;;;;;;;;-1.00;99.90;;;;;;5053755;28;19908;-74
2021/11/11 01:10:14;;;;;;;;;;;-1.10;99.90;;;;;;5070965;28;20363;-74
2021/11/11 01:12:40;;;;;;;;;;;-1.00;99.90;;;;;;5071514;28;19909;-73
2021/11/11 01:15:07;;;;;;;;;;;-0.90;99.90;;;;;;5071395;28;19920;-74
2021/11/11 01:17:33;;;;;;;;;;;-0.90;99.90;;;;;;5071580;28;19909;-74
2021/11/11 01:19:59;;;;;;;;;;;-1.00;99.90;;;;;;5070872;28;19995;-74
2021/11/11 01:22:24;;;;;;;;;;;-1.00;99.90;;;;;;5080750;28;19948;-73
2021/11/11 01:24:50;;;;;;;;;;;-0.90;99.90;;;;;;5091501;28;20382;-73
2021/11/11 01:27:15;;;;;;;;;;;-1.00;99.90;;;;;;5073444;28;19965;-73
2021/11/11 01:29:41;;;;;;;;;;;-0.90;99.90;;;;;;5091037;28;19912;-73
2021/11/11 01:32:07;;;;;;;;;;;-0.80;99.90;;;;;;5091496;28;19913;-74
2021/11/11 01:34:33;;;;;;;;;;;-0.90;99.90;;;;;;5091518;28;19909;-74
2021/11/11 01:36:58;;;;;;;;;;;-0.90;99.90;;;;;;5091467;28;19915;-73
2021/11/11 01:39:24;;;;;;;;;;;-0.90;99.90;;;;;;5091275;28;20007;-73
2021/11/11 01:41:50;;;;;;;;;;;-0.70;99.90;;;;;;5073085;28;19908;-73
2021/11/11 01:44:16;;;;;;;;;;;-0.60;99.90;;;;;;5091295;28;20235;-73
2021/11/11 01:46:42;;;;;;;;;;;-0.50;99.90;;;;;;5073206;28;19915;-73
2021/11/11 01:49:07;;;;;;;;;;;-0.40;99.90;;;;;;5091329;28;19908;-74
2021/11/11 01:51:33;;;;;;;;;;;-0.40;99.90;;;;;;5088463;28;19912;-74
2021/11/11 01:53:59;;;;;;;;;;;-0.50;99.90;;;;;;5070978;28;19908;-74
2021/11/11 01:56:24;;;;;;;;;;;-0.80;99.90;;;;;;5071068;28;19908;-73
2021/11/11 01:58:50;;;;;;;;;;;-1.00;99.90;;;;;;5052920;28;20386;-74
2021/11/11 02:01:16;;;;;;;;;;;-1.00;99.90;;;;;;5070596;28;19962;-74
2021/11/11 02:03:42;;;;;;;;;;;-1.00;99.90;;;;;;5071122;28;20396;-73
2021/11/11 02:06:08;;;;;;;;;;;-1.10;99.90;;;;;;5071043;28;20375;-74
2021/11/11 02:08:33;;;;;;;;;;;-1.10;99.90;;;;;;5071041;28;19923;-74
2021/11/11 02:10:59;;;;;;;;;;;-1.10;99.90;;;;;;5070232;28;20337;-73
2021/11/11 02:13:25;;;;;;;;;;;-1.10;99.90;;;;;;5070885;28;20337;-73
2021/11/11 02:15:50;;;;;;;;;;;-1.10;99.90;;;;;;5070969;28;20363;-73
2021/11/11 02:18:16;;;;;;;;;;;-1.20;99.90;;;;;;5072408;28;19920;-73
2021/11/11 02:20:42;;;;;;;;;;;-1.20;99.90;;;;;;5074227;28;19908;-73
2021/11/11 02:23:13;;;;;;;;;;;-1.00;99.90;;;;;;5090152;28;19992;-73
2021/11/11 02:25:41;;;;;;;;;;;-1.00;99.90;;;;;;5094032;28;21467;-74
2021/11/11 02:28:08;;;;;;;;;;;-1.00;99.90;;;;;;5094830;28;19915;-73
2021/11/11 02:30:33;;;;;;;;;;;-0.90;99.90;;;;;;5094279;28;19908;-73
2021/11/11 02:32:59;;;;;;;;;;;-0.90;99.90;;;;;;5094712;28;19908;-72
2021/11/11 02:35:25;;;;;;;;;;;-0.70;99.90;;;;;;5094819;28;19915;-73
2021/11/11 02:37:50;;;;;;;;;;;-0.70;99.90;;;;;;5094688;28;19908;-73
2021/11/11 02:40:20;;;;;;;;;;;-0.80;99.90;;;;;;5093961;28;20440;-73
2021/11/11 02:42:46;;;;;;;;;;;-0.90;99.90;;;;;;5094494;28;19908;-73
2021/11/11 02:45:14;;;;;;;;;;;-1.00;99.90;;;;;;5094607;28;19912;-73
2021/11/11 02:47:40;;;;;;;;;;;-1.10;99.90;;;;;;5094486;28;20392;-73
2021/11/11 02:53:09;;;;;;;;;;;-1.30;99.90;;;;;;5078625;28;19915;-73
2021/11/11 02:55:34;;;;;;;;;;;-1.30;99.90;;;;;;5056021;28;19908;-73
2021/11/11 02:58:00;;;;;;;;;;;-1.30;99.90;;;;;;5073925;28;19955;-73
2021/11/11 03:00:27;;;;;;;;;;;-1.20;99.90;;;;;;5073507;28;19912;-74
2021/11/11 03:02:53;;;;;;;;;;;-1.30;99.90;;;;;;5074044;28;19908;-74
2021/11/11 03:05:20;;;;;;;;;;;-1.30;99.90;;;;;;5073717;28;19953;-74
2021/11/11 03:07:46;;;;;;;;;;;-1.40;99.90;;;;;;5073914;28;20592;-74
2021/11/11 03:10:15;;;;;;;;;;;-1.30;99.90;;;;;;5073240;28;19956;-74
2021/11/11 03:12:41;;;;;;;;;;;-1.40;99.90;;;;;;5055775;28;19909;-73
2021/11/11 03:15:07;;;;;;;;;;;-1.50;99.90;;;;;;5073693;28;20003;-73
2021/11/11 03:17:33;;;;;;;;;;;-1.50;99.90;;;;;;5073689;28;19909;-73
2021/11/11 03:19:59;;;;;;;;;;;-1.50;99.90;;;;;;5072993;28;19958;-73
2021/11/11 03:22:25;;;;;;;;;;;-1.40;99.90;;;;;;5064594;28;19914;-73
2021/11/11 03:24:52;;;;;;;;;;;-1.30;99.90;;;;;;5075481;28;19908;-73
2021/11/11 03:27:18;;;;;;;;;;;-1.40;99.90;;;;;;5093699;28;20002;-73
2021/11/11 03:29:44;;;;;;;;;;;-1.50;99.90;;;;;;5091950;28;19939;-73
2021/11/11 03:32:10;;;;;;;;;;;-1.30;99.90;;;;;;5093589;28;20367;-73
2021/11/11 03:34:35;;;;;;;;;;;-1.30;99.90;;;;;;5075407;28;19914;-73
2021/11/11 03:37:02;;;;;;;;;;;-1.40;99.90;;;;;;5093527;28;19908;-73
2021/11/11 03:39:27;;;;;;;;;;;-1.30;99.90;;;;;;5093273;28;19968;-73
2021/11/11 03:41:53;;;;;;;;;;;-1.30;99.90;;;;;;5092887;28;19908;-73
2021/11/11 03:44:20;;;;;;;;;;;-1.20;99.90;;;;;;5093358;28;19931;-75
2021/11/11 03:46:46;;;;;;;;;;;-1.30;99.90;;;;;;5093349;28;19908;-74
2021/11/11 03:49:12;;;;;;;;;;;-1.50;99.90;;;;;;5093237;28;20351;-73
2021/11/11 03:51:38;;;;;;;;;;;-1.50;99.90;;;;;;5087277;28;20290;-73
2021/11/11 03:54:05;;;;;;;;;;;-1.50;99.90;;;;;;5073123;28;19908;-74
2021/11/11 03:56:32;;;;;;;;;;;-1.50;99.90;;;;;;5072906;28;19908;-73
2021/11/11 03:58:57;;;;;;;;;;;-1.30;99.90;;;;;;5072871;28;19912;-76
2021/11/11 04:01:23;;;;;;;;;;;-1.40;99.90;;;;;;5072234;28;19908;-73
2021/11/11 04:03:48;;;;;;;;;;;-1.20;99.90;;;;;;5072689;28;20354;-73
2021/11/11 04:06:14;;;;;;;;;;;-1.50;99.90;;;;;;5054833;28;19923;-74
2021/11/11 04:08:39;;;;;;;;;;;-1.50;99.90;;;;;;5072573;28;19909;-73
2021/11/11 04:11:05;;;;;;;;;;;-1.60;99.90;;;;;;5072122;28;19967;-73
2021/11/11 04:13:30;;;;;;;;;;;-1.40;99.90;;;;;;5072575;28;20355;-73
2021/11/11 04:15:56;;;;;;;;;;;-1.40;99.90;;;;;;5072707;28;20347;-73
2021/11/11 04:18:22;;;;;;;;;;;-1.50;99.90;;;;;;5072511;28;19912;-76
2021/11/11 04:20:47;;;;;;;;;;;-1.50;99.90;;;;;;5072061;28;19954;-73
2021/11/11 04:23:13;;;;;;;;;;;-1.60;99.90;;;;;;5074700;28;19932;-73
2021/11/11 04:28:34;;;;;;;;;;;-1.60;99.90;;;;;;5072730;28;19969;-73
2021/11/11 04:31:04;;;;;;;;;;;-1.70;99.90;;;;;;5071860;28;20009;-77
2021/11/11 04:33:30;;;;;;;;;;;-1.70;99.90;;;;;;5072223;28;19908;-73
2021/11/11 04:36:22;;;;;;;;;;;-1.50;99.90;;;;;;5072349;28;19913;-73
2021/11/11 04:39:12;;;;;;;;;;;-1.30;99.90;;;;;;5071087;28;19978;-73
2021/11/11 04:47:31;;;;;;;;;;;-1.10;99.90;;;;;;5038130;28;19909;-73
2021/11/11 05:03:43;;;;;;;;;;;-1.00;99.90;;;;;;5092215;28;19908;-76
2021/11/11 05:06:09;;;;;;;;;;;-1.00;99.90;;;;;;5091888;28;20148;-73
2021/11/11 05:08:34;;;;;;;;;;;-0.90;99.90;;;;;;5073768;28;19951;-73
2021/11/11 05:11:01;;;;;;;;;;;-1.00;99.90;;;;;;5073112;28;19916;-73
2021/11/11 05:13:27;;;;;;;;;;;-0.80;99.90;;;;;;5091920;28;19908;-73
2021/11/11 05:15:52;;;;;;;;;;;-0.80;99.90;;;;;;5091776;28;19908;-73
2021/11/11 05:18:18;;;;;;;;;;;-1.20;99.90;;;;;;5073532;28;20397;-73
2021/11/11 05:20:44;;;;;;;;;;;-1.20;99.90;;;;;;5091223;28;19915;-73
2021/11/11 05:23:10;;;;;;;;;;;-1.10;99.90;;;;;;5075680;28;19913;-73
2021/11/11 05:25:35;;;;;;;;;;;-1.10;99.90;;;;;;5071401;28;19913;-75
2021/11/11 05:28:01;;;;;;;;;;;-1.20;99.90;;;;;;5071626;28;19908;-73
2021/11/11 05:30:28;;;;;;;;;;;-1.40;99.90;;;;;;5071009;28;20264;-73
2021/11/11 05:32:53;;;;;;;;;;;-1.20;99.90;;;;;;5071516;28;19909;-73
2021/11/11 05:35:19;;;;;;;;;;;-1.40;99.90;;;;;;5053472;28;19909;-73
2021/11/11 05:37:45;;;;;;;;;;;-1.60;99.90;;;;;;5071572;28;19941;-73
2021/11/11 05:40:12;;;;;;;;;;;-1.60;99.90;;;;;;5070930;28;20009;-73
2021/11/11 05:42:38;;;;;;;;;;;-1.70;99.90;;;;;;5053444;28;19915;-74
2021/11/11 05:45:04;;;;;;;;;;;-1.70;99.90;;;;;;5071477;28;19909;-73
2021/11/11 05:47:30;;;;;;;;;;;-1.40;99.90;;;;;;5071442;28;19909;-75
2021/11/11 05:49:56;;;;;;;;;;;-1.40;99.90;;;;;;5070867;28;19981;-73
2021/11/11 05:52:21;;;;;;;;;;;-1.30;99.90;;;;;;5055809;28;19913;-73
2021/11/11 05:54:47;;;;;;;;;;;-1.30;99.90;;;;;;5075304;28;19916;-73
2021/11/11 05:57:12;;;;;;;;;;;-1.30;99.90;;;;;;5075492;28;20379;-74
2021/11/11 05:59:39;;;;;;;;;;;-1.50;99.90;;;;;;5074982;28;19934;-76
2021/11/11 06:02:08;;;;;;;;;;;-1.20;99.90;;;;;;5075271;28;20339;-74
2021/11/11 06:04:34;;;;;;;;;;;-1.10;99.90;;;;;;5075056;28;19908;-73
2021/11/11 06:07:00;;;;;;;;;;;-1.10;99.90;;;;;;5075274;28;19915;-73
2021/11/11 06:09:25;;;;;;;;;;;-1.00;99.90;;;;;;5075061;28;19995;-73
2021/11/11 06:11:51;;;;;;;;;;;-1.10;99.90;;;;;;5056838;28;20041;-73
2021/11/11 06:14:16;;;;;;;;;;;-1.10;99.90;;;;;;5075166;28;19959;-77
2021/11/11 06:16:42;;;;;;;;;;;-1.20;99.90;;;;;;5075068;28;20436;-73
2021/11/11 06:19:09;;;;;;;;;;;-1.20;99.90;;;;;;5074818;28;19913;-73
2021/11/11 06:21:36;;;;;;;;;;;-1.20;99.90;;;;;;5076742;28;19916;-73
2021/11/11 06:24:02;;;;;;;;;;;-1.00;99.90;;;;;;5074756;28;20283;-73
2021/11/11 06:26:27;;;;;;;;;;;-1.10;99.90;;;;;;5074854;28;19909;-74
2021/11/11 06:28:53;;;;;;;;;;;-1.20;99.90;;;;;;5074927;28;19962;-77
2021/11/11 06:31:18;;;;;;;;;;;-1.30;99.90;;;;;;5056379;28;19909;-73
2021/11/11 06:33:44;;;;;;;;;;;-1.40;99.90;;;;;;5074653;28;20024;-73
2021/11/11 06:36:09;;;;;;;;;;;-1.30;99.90;;;;;;5074741;28;19908;-74
2021/11/11 06:38:35;;;;;;;;;;;-1.30;99.90;;;;;;5056549;28;19912;-76
2021/11/11 06:41:01;;;;;;;;;;;-1.20;99.90;;;;;;5074125;28;20406;-73
2021/11/11 06:43:27;;;;;;;;;;;-1.30;99.90;;;;;;5074515;28;19913;-73
2021/11/11 06:45:52;;;;;;;;;;;-1.40;99.90;;;;;;5074629;28;19930;-73
2021/11/11 06:48:18;;;;;;;;;;;-1.40;99.90;;;;;;5079788;28;19908;-73
2021/11/11 06:50:45;;;;;;;;;;;-1.50;99.90;;;;;;5093695;28;19912;-76
2021/11/11 06:53:12;;;;;;;;;;;-1.50;99.90;;;;;;5094275;28;19908;-73
2021/11/11 06:55:39;;;;;;;;;;;-1.20;99.90;;;;;;5094340;28;19915;-73
2021/11/11 06:58:05;;;;;;;;;;;-1.20;99.90;;;;;;5094210;28;19908;-73
2021/11/11 07:00:31;;;;;;;;;;;-1.30;99.90;;;;;;5093724;28;20255;-72
2021/11/11 07:02:56;;;;;;;;;;;-1.30;99.90;;;;;;5094087;28;20011;-74
2021/11/11 07:05:23;;;;;;;;;;;-1.10;99.90;;;;;;5093874;28;19908;-73
2021/11/11 07:07:48;;;;;;;;;;;-1.10;99.90;;;;;;5093984;28;19913;-74
2021/11/11 07:10:14;;;;;;;;;;;-1.00;99.90;;;;;;5093535;28;19916;-73
2021/11/11 07:12:40;;;;;;;;;;;-1.10;99.90;;;;;;5093851;28;19935;-74
2021/11/11 07:15:07;;;;;;;;;;;-0.90;99.90;;;;;;5094205;28;20676;-73
2021/11/11 07:17:34;;;;;;;;;;;-0.80;99.90;;;;;;5094123;28;19909;-74
2021/11/11 07:20:00;;;;;;;;;;;-0.70;99.90;;;;;;5073410;28;19913;-73
2021/11/11 07:22:26;;;;;;;;;;;-0.80;99.90;;;;;;5073423;28;19947;-73
2021/11/11 07:24:51;;;;;;;;;;;-0.80;99.90;;;;;;5073660;28;19952;-73
2021/11/11 07:27:18;;;;;;;;;;;-0.70;99.90;;;;;;5055553;28;19908;-73
2021/11/11 07:29:43;;;;;;;;;;;-0.40;99.90;;;;;;5072931;28;19909;-76
2021/11/11 07:32:09;;;;;;;;;;;-0.20;99.90;;;;;;5077214;28;19914;-73
2021/11/11 07:34:36;;;;;;;;;;;-0.20;99.90;;;;;;5091793;28;19919;-75
2021/11/11 07:37:03;;;;;;;;;;;-0.20;99.90;;;;;;5093319;28;20405;-74
2021/11/11 07:39:28;;;;;;;;;;;-0.20;99.90;;;;;;5088782;28;20298;-73
2021/11/11 07:41:54;;;;;;;;;;;-0.10;99.90;;;;;;5078294;28;19909;-73
2021/11/11 07:44:19;;;;;;;;;;;-0.10;99.90;;;;;;5072531;28;19909;-74
2021/11/11 07:46:45;;;;;;;;;;;0.10;99.90;;;;;;5072701;28;20379;-73
2021/11/11 07:49:11;;;;;;;;;;;0.30;99.90;;;;;;5077236;28;19915;-73
2021/11/11 07:51:37;;;;;;;;;;;0.50;99.90;;;;;;5072283;28;19916;-74
2021/11/11 07:54:02;;;;;;;;;;;0.60;99.90;;;;;;5054886;28;20349;-74
2021/11/11 07:56:28;;;;;;;;;;;0.50;99.90;;;;;;5072346;28;19908;-74
2021/11/11 07:58:54;;;;;;;;;;;0.60;99.90;;;;;;5053491;28;19912;-76
2021/11/11 08:01:19;;;;;;;;;;;0.60;99.90;;;;;;5071725;28;19943;-75
2021/11/11 08:03:45;;;;;;;;;;;0.70;99.90;;;;;;5080594;28;19934;-74
2021/11/11 08:06:11;;;;;;;;;;;1.50;99.90;;;;;;5076573;28;19909;-74
2021/11/11 08:08:37;;;;;;;;;;;2.40;99.90;;;;;;5072239;28;19909;-74
2021/11/11 08:11:02;;;;;;;;;;;2.60;99.90;;;;;;5088093;28;20389;-74
2021/11/11 08:13:28;;;;;;;;;;;4.10;99.90;;;;;;5092116;28;19908;-75
2021/11/11 08:15:54;;;;;;;;;;;5.20;99.90;;;;;;5091268;28;20304;-74
2021/11/11 08:18:19;;;;;;;;;;;5.70;99.90;;;;;;5073874;28;20314;-74
2021/11/11 08:20:46;;;;;;;;;;;6.10;99.90;;;;;;5091387;28;19912;-73
2021/11/11 08:23:12;;;;;;;;;;;5.50;99.90;;;;;;5092371;28;20294;-77
2021/11/11 08:25:38;;;;;;;;;;;5.00;99.90;;;;;;5090852;28;19933;-75
2021/11/11 08:28:03;;;;;;;;;;;4.80;99.90;;;;;;5091762;28;19908;-75
2021/11/11 08:30:29;;;;;;;;;;;5.10;99.90;;;;;;5092297;28;19994;-74
2021/11/11 08:32:54;;;;;;;;;;;5.60;99.90;;;;;;5091510;28;19915;-75
2021/11/11 08:35:20;;;;;;;;;;;6.30;99.90;;;;;;5092433;28;19930;-75
2021/11/11 08:37:46;;;;;;;;;;;7.20;99.90;;;;;;5087521;28;20430;-75
2021/11/11 08:40:12;;;;;;;;;;;8.90;99.90;;;;;;5090740;28;19999;-75
2021/11/11 08:42:38;;;;;;;;;;;9.10;99.90;;;;;;5072729;28;19908;-75
2021/11/11 08:45:05;;;;;;;;;;;8.80;99.90;;;;;;5091587;28;19999;-75
2021/11/11 08:47:30;;;;;;;;;;;9.20;99.90;;;;;;5091808;28;19912;-76
2021/11/11 08:49:56;;;;;;;;;;;9.60;99.90;;;;;;5058279;28;19919;-75
2021/11/11 08:52:22;;;;;;;;;;;10.60;99.90;;;;;;5071540;28;19908;-76
2021/11/11 08:54:49;;;;;;;;;;;11.60;99.90;;;;;;5071211;28;19909;-75
2021/11/11 08:57:15;;;;;;;;;;;12.60;99.90;;;;;;5071289;28;19909;-75
2021/11/11 08:59:40;;;;;;;;;;;11.70;99.90;;;;;;5053033;28;20043;-76
2021/11/11 09:02:06;;;;;;;;;;;11.90;99.90;;;;;;5081423;28;19912;-76
2021/11/11 09:04:31;;;;;;;;;;;12.30;99.90;;;;;;5080755;28;19909;-75
2021/11/11 09:06:59;;;;;;;;;;;11.90;99.90;;;;;;5071408;28;19931;-78
2021/11/11 09:09:24;;;;;;;;;;;12.70;99.60;;;;;;5056090;28;19943;-76
2021/11/11 09:11:50;;;;;;;;;;;12.20;99.50;;;;;;5077871;28;20392;-76
2021/11/11 09:14:16;;;;;;;;;;;12.30;99.80;;;;;;5052396;28;20316;-76
2021/11/11 09:16:42;;;;;;;;;;;13.00;98.80;;;;;;5071447;28;19908;-74
2021/11/11 09:19:08;;;;;;;;;;;13.90;97.20;;;;;;5077444;28;20014;-75
2021/11/11 09:21:34;;;;;;;;;;;14.50;96.20;;;;;;5072753;28;19915;-74
2021/11/11 09:23:59;;;;;;;;;;;13.60;97.30;;;;;;5091555;28;20003;-74
2021/11/11 09:26:25;;;;;;;;;;;14.10;96.10;;;;;;5091066;28;19908;-74
2021/11/11 09:28:51;;;;;;;;;;;14.90;95.30;;;;;;5064052;28;19952;-76
2021/11/11 09:31:16;;;;;;;;;;;14.80;95.00;;;;;;5082722;28;20289;-76
2021/11/11 09:33:43;;;;;;;;;;;14.70;94.80;;;;;;5085666;28;19915;-76
2021/11/11 09:36:08;;;;;;;;;;;14.00;95.20;;;;;;5070910;28;19998;-76
2021/11/11 09:38:34;;;;;;;;;;;14.70;94.50;;;;;;5067899;28;20011;-77
2021/11/11 09:41:00;;;;;;;;;;;15.00;94.70;;;;;;5087685;28;19919;-78
2021/11/11 09:43:26;;;;;;;;;;;15.90;92.90;;;;;;5089568;28;19908;-76
2021/11/11 09:45:52;;;;;;;;;;;16.10;92.50;;;;;;5091209;28;20144;-74
2021/11/11 09:48:18;;;;;;;;;;;17.00;91.60;;;;;;5090029;28;19999;-74
2021/11/11 09:50:44;;;;;;;;;;;17.60;91.40;;;;;;5057145;28;20344;-75
2021/11/11 09:53:13;;;;;;;;;;;16.90;90.10;;;;;;5087744;28;19915;-77
2021/11/11 09:58:38;;;;;;;;;;;16.40;90.90;;;;;;5087725;28;19919;-75
2021/11/11 10:01:05;;;;;;;;;;;17.50;90.40;;;;;;5072169;28;19965;-75
2021/11/11 10:03:31;;;;;;;;;;;17.40;90.20;;;;;;5079274;28;19977;-76
2021/11/11 10:05:56;;;;;;;;;;;17.40;90.50;;;;;;5070294;28;20325;-75
2021/11/11 10:08:38;;;;;;;;;;;17.90;87.00;;;;;;5070523;28;19912;-75
2021/11/11 10:11:08;;;;;;;;;;;17.40;89.70;;;;;;5068645;28;19916;-75
2021/11/11 10:13:34;;;;;;;;;;;17.20;89.00;;;;;;5070740;28;19944;-75
2021/11/11 10:16:01;;;;;;;;;;;16.50;87.40;;;;;;5052775;28;20389;-75
2021/11/11 10:18:35;;;;;;;;;;;16.90;87.30;;;;;;5075335;28;19919;-75
2021/11/11 10:21:00;;;;;;;;;;;17.20;88.90;;;;;;5069841;28;19908;-75
2021/11/11 10:23:26;;;;;;;;;;;17.90;88.10;;;;;;5070640;28;19967;-74
2021/11/11 10:26:14;;;;;;;;;;;16.80;87.30;;;;;;5070739;28;19908;-75
2021/11/11 10:28:40;;;;;;;;;;;16.60;88.80;;;;;;5070412;28;19952;-74
2021/11/11 10:31:12;;;;;;;;;;;15.30;90.10;;;;;;5069201;28;19951;-76
2021/11/11 10:33:37;;;;;;;;;;;14.10;93.20;;;;;;5070178;28;19915;-75
2021/11/11 10:36:06;;;;;;;;;;;12.60;94.30;;;;;;5052166;28;19960;-76
2021/11/11 10:38:31;;;;;;;;;;;11.70;95.70;;;;;;5070734;28;20276;-75
2021/11/11 10:40:57;;;;;;;;;;;11.20;97.30;;;;;;5055565;28;19920;-74
2021/11/11 10:43:27;;;;;;;;;;;10.90;97.90;;;;;;5073957;28;19915;-74
2021/11/11 10:45:54;;;;;;;;;;;11.00;98.90;;;;;;5073117;28;19912;-74
2021/11/11 10:48:23;;;;;;;;;;;11.00;98.70;;;;;;5073421;28;19951;-73
2021/11/11 10:50:51;;;;;;;;;;;10.90;98.80;;;;;;5075275;28;19908;-74
2021/11/11 10:53:21;;;;;;;;;;;10.70;99.00;;;;;;5093817;28;19912;-75
2021/11/11 10:55:52;;;;;;;;;;;10.20;98.80;;;;;;5092423;28;19914;-74
2021/11/11 10:58:20;;;;;;;;;;;9.50;99.90;;;;;;5093506;28;19961;-76
2021/11/11 11:00:56;;;;;;;;;;;10.20;99.90;;;;;;5092293;28;19915;-76
2021/11/11 11:03:23;;;;;;;;;;;10.00;99.90;;;;;;5085491;28;19915;-75
2021/11/11 11:06:08;;;;;;;;;;;9.50;99.90;;;;;;5093465;28;19912;-74
2021/11/11 11:08:33;;;;;;;;;;;9.30;99.90;;;;;;5092487;28;19995;-74
2021/11/11 11:11:07;;;;;;;;;;;8.90;99.90;;;;;;5072054;28;20007;-74
2021/11/11 11:13:35;;;;;;;;;;;8.70;99.90;;;;;;5093667;28;19908;-75
2021/11/11 11:16:02;;;;;;;;;;;8.80;99.90;;;;;;5093605;28;19915;-74
2021/11/11 11:18:32;;;;;;;;;;;8.70;99.90;;;;;;5091719;28;19934;-74
2021/11/11 11:21:12;;;;;;;;;;;8.80;99.90;;;;;;5072552;28;19908;-74
2021/11/11 11:23:42;;;;;;;;;;;8.60;99.90;;;;;;5073486;28;19945;-74
2021/11/11 11:26:09;;;;;;;;;;;8.70;99.90;;;;;;5055399;28;19917;-75
2021/11/11 11:28:50;;;;;;;;;;;8.70;99.90;;;;;;5073054;28;19995;-76
2021/11/11 11:31:27;;;;;;;;;;;8.70;99.90;;;;;;5072014;28;19919;-75
2021/11/11 11:33:53;;;;;;;;;;;8.70;99.90;;;;;;5072517;28;19919;-75
2021/11/11 11:36:30;;;;;;;;;;;8.70;99.90;;;;;;5073180;28;20301;-75
2021/11/11 11:38:55;;;;;;;;;;;8.70;99.90;;;;;;5073036;28;20278;-75
2021/11/11 11:41:23;;;;;;;;;;;8.70;99.90;;;;;;5054916;28;19908;-76
2021/11/11 11:43:50;;;;;;;;;;;8.60;99.90;;;;;;5054580;28;19909;-76
2021/11/11 11:46:22;;;;;;;;;;;8.70;99.90;;;;;;5072021;28;19916;-75
2021/11/11 11:48:48;;;;;;;;;;;8.70;99.90;;;;;;5062975;28;19915;-75
2021/11/11 11:51:16;;;;;;;;;;;8.80;99.90;;;;;;5075762;28;19908;-77
2021/11/11 11:53:49;;;;;;;;;;;8.80;99.90;;;;;;5090150;28;20061;-75
2021/11/11 11:56:24;;;;;;;;;;;8.90;99.90;;;;;;5093126;28;20273;-75
2021/11/11 12:01:34;;;;;;;;;;;8.80;99.90;;;;;;5092568;28;20318;-75
2021/11/11 12:17:16;;;;;;;;;;;8.80;99.90;;;;;;5072310;28;19908;-75
2021/11/11 12:39:31;;;;;;;;;;;9.30;99.90;;;;;;5091690;28;20310;-78
2021/11/11 12:41:57;;;;;;;;;;;9.30;99.90;;;;;;5091909;28;19958;-75
2021/11/11 12:44:23;;;;;;;;;;;9.40;99.90;;;;;;5091606;28;19912;-74
2021/11/11 12:46:49;;;;;;;;;;;9.30;99.90;;;;;;5091255;28;19908;-76
2021/11/11 12:49:25;;;;;;;;;;;9.50;99.90;;;;;;5083552;28;20363;-75
2021/11/11 12:52:09;;;;;;;;;;;9.40;99.90;;;;;;5071194;28;19908;-74
2021/11/11 12:54:36;;;;;;;;;;;9.60;99.90;;;;;;5070993;28;19935;-75
2021/11/11 12:57:03;;;;;;;;;;;9.60;99.90;;;;;;5070365;28;20039;-75
2021/11/11 12:59:31;;;;;;;;;;;9.70;99.90;;;;;;5071034;28;19912;-74
2021/11/11 13:01:59;;;;;;;;;;;9.50;99.90;;;;;;5081216;28;19912;-74
2021/11/11 13:04:26;;;;;;;;;;;9.50;99.90;;;;;;5088868;28;19939;-75
2021/11/11 13:07:01;;;;;;;;;;;9.30;99.90;;;;;;5091746;28;19915;-76
2021/11/11 13:09:37;;;;;;;;;;;9.60;99.90;;;;;;5088491;28;19935;-75
2021/11/11 13:12:02;;;;;;;;;;;9.70;99.90;;;;;;5052659;28;20467;-74
2021/11/11 13:14:35;;;;;;;;;;;9.60;99.90;;;;;;5071075;28;19936;-74
2021/11/11 13:17:00;;;;;;;;;;;9.60;99.90;;;;;;5070512;28;19956;-74
2021/11/11 13:19:45;;;;;;;;;;;9.50;99.90;;;;;;5080397;28;19982;-75
2021/11/11 15:14:36;;;;;;;;;;;6.90;99.90;;;;;;5085770;28;19914;-76
2021/11/11 15:16:47;;;;;;;;;;;6.70;99.90;;;;;;5090883;28;19908;-76
2021/11/11 16:01:49;;;;;;;;;;;4.50;99.90;;;;;;5088919;28;20285;-74
2021/11/11 16:23:20;;;;;;;;;;;3.70;99.90;;;;;;5090514;28;19908;-74
2021/11/11 16:28:20;;;;;;;;;;;3.50;99.90;;;;;;5091189;28;19909;-75
2021/11/11 16:30:46;;;;;;;;;;;3.20;99.90;;;;;;5071970;28;19916;-74
2021/11/11 16:33:12;;;;;;;;;;;3.20;99.90;;;;;;5088484;28;19915;-74
2021/11/11 16:35:37;;;;;;;;;;;3.20;99.90;;;;;;5091781;28;19915;-75
2021/11/11 16:38:03;;;;;;;;;;;3.20;99.90;;;;;;5089021;28;19908;-74
2021/11/11 16:40:31;;;;;;;;;;;3.30;99.90;;;;;;5072645;28;20286;-76
2021/11/11 16:42:56;;;;;;;;;;;3.40;99.90;;;;;;5087477;28;19912;-75
2021/11/11 16:45:22;;;;;;;;;;;3.40;99.90;;;;;;5089222;28;19938;-75
2021/11/11 16:47:48;;;;;;;;;;;3.30;99.90;;;;;;5072998;28;20322;-74
2021/11/11 16:50:14;;;;;;;;;;;3.20;99.90;;;;;;5075063;28;19916;-74
2021/11/11 16:52:40;;;;;;;;;;;3.20;99.90;;;;;;5071882;28;19912;-74
2021/11/11 16:55:06;;;;;;;;;;;3.20;99.90;;;;;;5071764;28;19908;-74
2021/11/11 16:57:31;;;;;;;;;;;3.10;99.90;;;;;;5071869;28;19909;-75
2021/11/11 16:59:57;;;;;;;;;;;3.00;99.90;;;;;;5071322;28;20314;-74
2021/11/11 17:02:22;;;;;;;;;;;2.90;99.90;;;;;;5071843;28;20003;-75
2021/11/11 17:04:48;;;;;;;;;;;2.80;99.90;;;;;;5071584;28;19908;-75
2021/11/11 17:07:13;;;;;;;;;;;2.80;99.90;;;;;;5071751;28;19908;-76
2021/11/11 17:09:40;;;;;;;;;;;2.80;99.90;;;;;;5070966;28;19908;-75
2021/11/11 17:12:05;;;;;;;;;;;2.70;99.90;;;;;;5070926;28;19912;-74
2021/11/11 17:14:34;;;;;;;;;;;2.70;99.90;;;;;;5052899;28;20508;-75
2021/11/11 17:17:00;;;;;;;;;;;2.60;99.90;;;;;;5070878;28;19947;-77
2021/11/11 17:19:26;;;;;;;;;;;2.50;99.90;;;;;;5080608;28;20017;-75
2021/11/11 17:21:54;;;;;;;;;;;2.50;99.90;;;;;;5090507;28;19915;-77
2021/11/11 17:24:33;;;;;;;;;;;2.60;99.90;;;;;;5090765;28;20006;-75
2021/11/11 17:27:20;;;;;;;;;;;2.50;99.90;;;;;;5091008;28;19908;-75
2021/11/11 17:29:44;;;;;;;;;;;2.30;99.90;;;;;;5090832;28;20267;-77
2021/11/11 17:32:10;;;;;;;;;;;2.30;99.90;;;;;;5072903;28;19919;-73
2021/11/11 17:34:35;;;;;;;;;;;2.30;99.90;;;;;;5090703;28;19918;-74
2021/11/11 17:37:01;;;;;;;;;;;2.30;99.90;;;;;;5090655;28;20325;-75
2021/11/11 17:39:26;;;;;;;;;;;2.20;99.90;;;;;;5090400;28;20093;-74
2021/11/11 17:41:52;;;;;;;;;;;2.00;99.90;;;;;;5072288;28;19908;-74
2021/11/11 17:44:17;;;;;;;;;;;2.10;99.90;;;;;;5090524;28;19908;-74
2021/11/11 17:46:45;;;;;;;;;;;2.10;99.90;;;;;;5090604;28;19916;-74
2021/11/11 17:49:19;;;;;;;;;;;2.10;99.90;;;;;;5062011;28;20329;-74
2021/11/11 17:51:56;;;;;;;;;;;2.20;99.90;;;;;;5069709;28;20002;-77
2021/11/11 17:56:53;;;;;;;;;;;2.30;99.90;;;;;;5070053;28;19909;-74
2021/11/11 17:59:19;;;;;;;;;;;2.20;99.90;;;;;;5052218;28;19961;-74
2021/11/11 18:01:47;;;;;;;;;;;2.10;99.90;;;;;;5069644;28;19951;-75
2021/11/11 18:04:13;;;;;;;;;;;2.10;99.90;;;;;;5052186;28;20399;-74
2021/11/11 18:06:43;;;;;;;;;;;1.90;99.90;;;;;;5069816;28;19916;-75
2021/11/11 18:09:15;;;;;;;;;;;1.80;99.90;;;;;;5052066;28;20046;-74
2021/11/11 18:11:49;;;;;;;;;;;1.70;99.90;;;;;;4988742;28;1805914;-74
2021/11/11 18:14:21;;;;;;;;;;;1.60;99.90;;;;;;5070944;28;19920;-74
2021/11/11 18:16:50;;;;;;;;;;;1.60;99.90;;;;;;5070958;28;19913;-74
2021/11/11 18:19:15;;;;;;;;;;;1.50;99.90;;;;;;5078861;28;20393;-74
2021/11/11 18:21:41;;;;;;;;;;;1.40;99.90;;;;;;5090340;28;19908;-74
2021/11/11 18:24:11;;;;;;;;;;;1.30;99.90;;;;;;5090775;28;20215;-74